sensor_id;sensor_type;location;lat;lon;timestamp;temperature;humidity
39021;DHT22;25188;51.958;5.842;2023-03-01T00:01:25;1.50;60.70
39021;DHT22;25188;51.958;5.842;2023-03-01T00:03:51;1.40;61.00
39021;DHT22;25188;51.958;5.842;2023-03-01T00:06:18;1.40;60.80
39021;DHT22;25188;51.958;5.842;2023-03-01T00:08:44;1.40;60.90
39021;DHT22;25188;51.958;5.842;2023-03-01T00:11:17;1.40;60.80
39021;DHT22;25188;51.958;5.842;2023-03-01T00:13:44;1.40;61.00
39021;DHT22;25188;51.958;5.842;2023-03-01T00:16:13;1.40;61.20
39021;DHT22;25188;51.958;5.842;2023-03-01T00:18:39;1.30;61.20
39021;DHT22;25188;51.958;5.842;2023-03-01T00:21:05;1.20;61.30
39021;DHT22;25188;51.958;5.842;2023-03-01T00:23:33;1.30;61.40
39021;DHT22;25188;51.958;5.842;2023-03-01T00:25:58;1.30;61.50
39021;DHT22;25188;51.958;5.842;2023-03-01T00:28:24;1.30;61.60
39021;DHT22;25188;51.958;5.842;2023-03-01T00:30:50;1.20;61.50
39021;DHT22;25188;51.958;5.842;2023-03-01T00:33:16;1.20;61.60
39021;DHT22;25188;51.958;5.842;2023-03-01T00:35:41;1.20;61.80
39021;DHT22;25188;51.958;5.842;2023-03-01T00:38:07;1.30;62.00
39021;DHT22;25188;51.958;5.842;2023-03-01T00:40:34;1.10;62.10
39021;DHT22;25188;51.958;5.842;2023-03-01T00:43:01;1.10;62.10
39021;DHT22;25188;51.958;5.842;2023-03-01T00:45:27;1.10;62.20
39021;DHT22;25188;51.958;5.842;2023-03-01T00:47:53;1.10;62.30
39021;DHT22;25188;51.958;5.842;2023-03-01T00:50:19;1.20;62.50
39021;DHT22;25188;51.958;5.842;2023-03-01T00:52:44;1.10;62.60
39021;DHT22;25188;51.958;5.842;2023-03-01T00:55:11;1.10;62.70
39021;DHT22;25188;51.958;5.842;2023-03-01T00:57:37;1.10;62.90
39021;DHT22;25188;51.958;5.842;2023-03-01T01:00:06;1.10;62.70
39021;DHT22;25188;51.958;5.842;2023-03-01T01:02:33;1.00;62.60
39021;DHT22;25188;51.958;5.842;2023-03-01T01:04:59;1.00;62.70
39021;DHT22;25188;51.958;5.842;2023-03-01T01:07:25;1.00;62.80
39021;DHT22;25188;51.958;5.842;2023-03-01T01:09:50;0.80;62.70
39021;DHT22;25188;51.958;5.842;2023-03-01T01:12:16;0.90;63.00
39021;DHT22;25188;51.958;5.842;2023-03-01T01:14:42;0.80;63.10
39021;DHT22;25188;51.958;5.842;2023-03-01T01:17:07;0.90;63.30
39021;DHT22;25188;51.958;5.842;2023-03-01T01:19:33;0.90;63.60
39021;DHT22;25188;51.958;5.842;2023-03-01T01:21:59;0.90;63.80
39021;DHT22;25188;51.958;5.842;2023-03-01T01:24:24;0.90;63.80
39021;DHT22;25188;51.958;5.842;2023-03-01T01:26:50;0.90;64.50
39021;DHT22;25188;51.958;5.842;2023-03-01T01:29:15;0.90;64.50
39021;DHT22;25188;51.958;5.842;2023-03-01T01:31:42;0.80;64.90
39021;DHT22;25188;51.958;5.842;2023-03-01T01:34:13;0.80;64.80
39021;DHT22;25188;51.958;5.842;2023-03-01T01:36:39;0.80;64.90
39021;DHT22;25188;51.958;5.842;2023-03-01T01:39:05;0.80;65.00
39021;DHT22;25188;51.958;5.842;2023-03-01T01:41:31;0.80;65.60
39021;DHT22;25188;51.958;5.842;2023-03-01T01:44:19;0.80;66.40
39021;DHT22;25188;51.958;5.842;2023-03-01T01:46:46;0.80;66.60
39021;DHT22;25188;51.958;5.842;2023-03-01T01:49:17;0.80;67.20
39021;DHT22;25188;51.958;5.842;2023-03-01T01:51:45;0.70;67.10
39021;DHT22;25188;51.958;5.842;2023-03-01T01:54:33;0.70;67.50
39021;DHT22;25188;51.958;5.842;2023-03-01T01:57:02;0.70;67.40
39021;DHT22;25188;51.958;5.842;2023-03-01T01:59:30;0.80;67.80
39021;DHT22;25188;51.958;5.842;2023-03-01T02:01:59;0.60;67.80
39021;DHT22;25188;51.958;5.842;2023-03-01T02:04:28;0.70;67.70
39021;DHT22;25188;51.958;5.842;2023-03-01T02:07:23;0.70;67.50
39021;DHT22;25188;51.958;5.842;2023-03-01T02:09:51;0.60;67.20
39021;DHT22;25188;51.958;5.842;2023-03-01T02:12:20;0.60;67.90
39021;DHT22;25188;51.958;5.842;2023-03-01T02:14:47;0.60;68.20
39021;DHT22;25188;51.958;5.842;2023-03-01T02:17:14;0.60;68.20
39021;DHT22;25188;51.958;5.842;2023-03-01T02:22:40;0.60;68.40
39021;DHT22;25188;51.958;5.842;2023-03-01T02:30:22;0.60;68.30
39021;DHT22;25188;51.958;5.842;2023-03-01T02:32:52;0.60;68.10
39021;DHT22;25188;51.958;5.842;2023-03-01T02:35:18;0.70;68.20
39021;DHT22;25188;51.958;5.842;2023-03-01T02:37:45;0.60;67.80
39021;DHT22;25188;51.958;5.842;2023-03-01T02:40:16;0.50;67.50
39021;DHT22;25188;51.958;5.842;2023-03-01T02:42:51;0.70;67.70
39021;DHT22;25188;51.958;5.842;2023-03-01T02:45:17;0.70;67.50
39021;DHT22;25188;51.958;5.842;2023-03-01T02:47:43;0.50;67.50
39021;DHT22;25188;51.958;5.842;2023-03-01T02:53:39;0.50;67.30
39021;DHT22;25188;51.958;5.842;2023-03-01T02:56:09;0.50;67.90
39021;DHT22;25188;51.958;5.842;2023-03-01T02:58:40;0.50;68.10
39021;DHT22;25188;51.958;5.842;2023-03-01T03:01:13;0.50;68.60
39021;DHT22;25188;51.958;5.842;2023-03-01T03:03:41;0.50;68.50
39021;DHT22;25188;51.958;5.842;2023-03-01T03:06:07;0.50;68.10
39021;DHT22;25188;51.958;5.842;2023-03-01T03:08:33;0.50;68.40
39021;DHT22;25188;51.958;5.842;2023-03-01T03:10:59;0.40;68.30
39021;DHT22;25188;51.958;5.842;2023-03-01T03:13:24;0.50;68.20
39021;DHT22;25188;51.958;5.842;2023-03-01T03:15:55;0.50;68.30
39021;DHT22;25188;51.958;5.842;2023-03-01T03:18:21;0.50;68.30
39021;DHT22;25188;51.958;5.842;2023-03-01T03:20:47;0.50;68.10
39021;DHT22;25188;51.958;5.842;2023-03-01T03:23:13;0.50;68.10
39021;DHT22;25188;51.958;5.842;2023-03-01T03:25:39;0.40;68.20
39021;DHT22;25188;51.958;5.842;2023-03-01T03:28:06;0.50;68.20
39021;DHT22;25188;51.958;5.842;2023-03-01T03:30:38;0.50;68.50
39021;DHT22;25188;51.958;5.842;2023-03-01T03:33:07;0.40;68.30
39021;DHT22;25188;51.958;5.842;2023-03-01T03:35:38;0.40;68.80
39021;DHT22;25188;51.958;5.842;2023-03-01T03:38:07;0.40;68.50
39021;DHT22;25188;51.958;5.842;2023-03-01T03:40:45;0.40;68.50
39021;DHT22;25188;51.958;5.842;2023-03-01T03:43:16;0.40;68.20
39021;DHT22;25188;51.958;5.842;2023-03-01T03:45:44;0.40;68.10
39021;DHT22;25188;51.958;5.842;2023-03-01T03:48:10;0.50;68.20
39021;DHT22;25188;51.958;5.842;2023-03-01T03:50:37;0.40;68.20
39021;DHT22;25188;51.958;5.842;2023-03-01T03:53:05;0.30;68.30
39021;DHT22;25188;51.958;5.842;2023-03-01T03:55:32;0.30;68.20
39021;DHT22;25188;51.958;5.842;2023-03-01T03:58:00;0.30;68.30
39021;DHT22;25188;51.958;5.842;2023-03-01T04:00:33;0.20;68.30
39021;DHT22;25188;51.958;5.842;2023-03-01T04:02:59;0.20;68.40
39021;DHT22;25188;51.958;5.842;2023-03-01T04:05:26;0.20;68.50
39021;DHT22;25188;51.958;5.842;2023-03-01T04:07:52;0.20;68.60
39021;DHT22;25188;51.958;5.842;2023-03-01T04:10:28;0.10;68.60
39021;DHT22;25188;51.958;5.842;2023-03-01T04:12:54;0.10;68.80
39021;DHT22;25188;51.958;5.842;2023-03-01T04:15:22;0.10;68.90
39021;DHT22;25188;51.958;5.842;2023-03-01T04:17:50;0.00;69.00
39021;DHT22;25188;51.958;5.842;2023-03-01T04:20:19;0.00;69.10
39021;DHT22;25188;51.958;5.842;2023-03-01T04:22:51;0.00;69.20
39021;DHT22;25188;51.958;5.842;2023-03-01T04:25:17;0.00;69.20
39021;DHT22;25188;51.958;5.842;2023-03-01T04:27:43;-0.10;69.10
39021;DHT22;25188;51.958;5.842;2023-03-01T04:30:09;-0.10;69.20
39021;DHT22;25188;51.958;5.842;2023-03-01T04:32:35;-0.10;69.30
39021;DHT22;25188;51.958;5.842;2023-03-01T04:35:01;-0.10;69.40
39021;DHT22;25188;51.958;5.842;2023-03-01T04:37:26;-0.10;69.40
39021;DHT22;25188;51.958;5.842;2023-03-01T04:39:52;-0.20;69.40
39021;DHT22;25188;51.958;5.842;2023-03-01T04:42:19;-0.10;69.50
39021;DHT22;25188;51.958;5.842;2023-03-01T04:44:45;-0.20;69.60
39021;DHT22;25188;51.958;5.842;2023-03-01T04:47:11;-0.20;69.70
39021;DHT22;25188;51.958;5.842;2023-03-01T04:49:37;-0.10;69.70
39021;DHT22;25188;51.958;5.842;2023-03-01T04:52:03;-0.20;69.70
39021;DHT22;25188;51.958;5.842;2023-03-01T04:54:33;-0.20;69.80
39021;DHT22;25188;51.958;5.842;2023-03-01T04:57:00;-0.20;69.80
39021;DHT22;25188;51.958;5.842;2023-03-01T04:59:27;-0.20;69.80
39021;DHT22;25188;51.958;5.842;2023-03-01T05:01:53;-0.30;69.90
39021;DHT22;25188;51.958;5.842;2023-03-01T05:04:23;-0.30;69.90
39021;DHT22;25188;51.958;5.842;2023-03-01T05:06:49;-0.30;70.00
39021;DHT22;25188;51.958;5.842;2023-03-01T05:09:15;-0.30;70.20
39021;DHT22;25188;51.958;5.842;2023-03-01T05:11:41;-0.30;70.20
39021;DHT22;25188;51.958;5.842;2023-03-01T05:14:08;-0.40;70.30
39021;DHT22;25188;51.958;5.842;2023-03-01T05:16:34;-0.20;70.30
39021;DHT22;25188;51.958;5.842;2023-03-01T05:19:01;-0.40;70.20
39021;DHT22;25188;51.958;5.842;2023-03-01T05:21:39;-0.30;70.30
39021;DHT22;25188;51.958;5.842;2023-03-01T05:24:25;-0.30;70.30
39021;DHT22;25188;51.958;5.842;2023-03-01T05:26:50;-0.20;70.40
39021;DHT22;25188;51.958;5.842;2023-03-01T05:29:20;-0.10;70.50
39021;DHT22;25188;51.958;5.842;2023-03-01T05:31:54;-0.30;70.50
39021;DHT22;25188;51.958;5.842;2023-03-01T05:34:29;-0.40;70.50
39021;DHT22;25188;51.958;5.842;2023-03-01T05:36:55;-0.40;70.60
39021;DHT22;25188;51.958;5.842;2023-03-01T05:39:22;-0.40;70.70
39021;DHT22;25188;51.958;5.842;2023-03-01T05:41:52;-0.40;70.70
39021;DHT22;25188;51.958;5.842;2023-03-01T05:44:18;-0.40;70.80
39021;DHT22;25188;51.958;5.842;2023-03-01T05:46:43;-0.40;70.90
39021;DHT22;25188;51.958;5.842;2023-03-01T05:49:10;-0.40;70.90
39021;DHT22;25188;51.958;5.842;2023-03-01T05:51:36;-0.50;70.90
39021;DHT22;25188;51.958;5.842;2023-03-01T05:54:02;-0.40;71.10
39021;DHT22;25188;51.958;5.842;2023-03-01T05:56:27;-0.50;71.10
39021;DHT22;25188;51.958;5.842;2023-03-01T05:58:54;-0.50;71.20
39021;DHT22;25188;51.958;5.842;2023-03-01T06:01:20;-0.50;71.20
39021;DHT22;25188;51.958;5.842;2023-03-01T06:03:45;-0.50;71.30
39021;DHT22;25188;51.958;5.842;2023-03-01T06:06:11;-0.60;71.40
39021;DHT22;25188;51.958;5.842;2023-03-01T06:08:36;-0.60;71.50
39021;DHT22;25188;51.958;5.842;2023-03-01T06:11:02;-0.60;71.50
39021;DHT22;25188;51.958;5.842;2023-03-01T06:13:28;-0.60;71.70
39021;DHT22;25188;51.958;5.842;2023-03-01T06:15:55;-0.60;71.80
39021;DHT22;25188;51.958;5.842;2023-03-01T06:18:21;-0.60;71.90
39021;DHT22;25188;51.958;5.842;2023-03-01T06:20:55;-0.60;72.00
39021;DHT22;25188;51.958;5.842;2023-03-01T06:23:22;-0.60;72.10
39021;DHT22;25188;51.958;5.842;2023-03-01T06:25:48;-0.60;72.10
39021;DHT22;25188;51.958;5.842;2023-03-01T06:28:14;-0.60;72.10
39021;DHT22;25188;51.958;5.842;2023-03-01T06:30:39;-0.50;72.40
39021;DHT22;25188;51.958;5.842;2023-03-01T06:33:05;-0.50;72.60
39021;DHT22;25188;51.958;5.842;2023-03-01T06:35:31;-0.50;72.30
39021;DHT22;25188;51.958;5.842;2023-03-01T06:37:58;-0.50;72.30
39021;DHT22;25188;51.958;5.842;2023-03-01T06:40:24;-0.50;72.30
39021;DHT22;25188;51.958;5.842;2023-03-01T06:42:51;-0.40;72.40
39021;DHT22;25188;51.958;5.842;2023-03-01T06:45:18;-0.50;72.30
39021;DHT22;25188;51.958;5.842;2023-03-01T06:47:44;-0.40;72.40
39021;DHT22;25188;51.958;5.842;2023-03-01T06:50:10;-0.40;72.60
39021;DHT22;25188;51.958;5.842;2023-03-01T06:52:37;-0.40;72.60
39021;DHT22;25188;51.958;5.842;2023-03-01T06:55:03;-0.40;73.30
39021;DHT22;25188;51.958;5.842;2023-03-01T06:57:29;-0.40;72.80
39021;DHT22;25188;51.958;5.842;2023-03-01T06:59:55;-0.30;72.90
39021;DHT22;25188;51.958;5.842;2023-03-01T07:02:21;-0.20;73.00
39021;DHT22;25188;51.958;5.842;2023-03-01T07:04:49;-0.20;73.10
39021;DHT22;25188;51.958;5.842;2023-03-01T07:07:15;-0.30;73.10
39021;DHT22;25188;51.958;5.842;2023-03-01T07:09:41;-0.30;73.20
39021;DHT22;25188;51.958;5.842;2023-03-01T07:12:06;-0.30;73.30
39021;DHT22;25188;51.958;5.842;2023-03-01T07:14:33;-0.20;73.40
39021;DHT22;25188;51.958;5.842;2023-03-01T07:16:59;-0.20;73.40
39021;DHT22;25188;51.958;5.842;2023-03-01T07:19:24;-0.10;73.50
39021;DHT22;25188;51.958;5.842;2023-03-01T07:21:50;-0.20;73.50
39021;DHT22;25188;51.958;5.842;2023-03-01T07:24:15;0.00;73.50
39021;DHT22;25188;51.958;5.842;2023-03-01T07:26:41;-0.10;73.50
39021;DHT22;25188;51.958;5.842;2023-03-01T07:29:07;-0.10;73.50
39021;DHT22;25188;51.958;5.842;2023-03-01T07:31:35;-0.10;73.60
39021;DHT22;25188;51.958;5.842;2023-03-01T07:34:01;0.00;73.60
39021;DHT22;25188;51.958;5.842;2023-03-01T07:36:26;0.00;73.70
39021;DHT22;25188;51.958;5.842;2023-03-01T07:38:52;0.10;73.80
39021;DHT22;25188;51.958;5.842;2023-03-01T07:41:18;0.10;74.10
39021;DHT22;25188;51.958;5.842;2023-03-01T07:43:43;0.20;74.50
39021;DHT22;25188;51.958;5.842;2023-03-01T07:46:09;0.30;74.50
39021;DHT22;25188;51.958;5.842;2023-03-01T07:48:35;0.30;74.10
39021;DHT22;25188;51.958;5.842;2023-03-01T07:51:02;0.40;74.10
39021;DHT22;25188;51.958;5.842;2023-03-01T07:53:28;0.40;74.10
39021;DHT22;25188;51.958;5.842;2023-03-01T07:56:20;0.70;74.20
39021;DHT22;25188;51.958;5.842;2023-03-01T07:58:47;0.60;74.20
39021;DHT22;25188;51.958;5.842;2023-03-01T08:01:18;0.70;74.20
39021;DHT22;25188;51.958;5.842;2023-03-01T08:03:44;0.60;74.10
39021;DHT22;25188;51.958;5.842;2023-03-01T08:06:11;0.70;74.80
39021;DHT22;25188;51.958;5.842;2023-03-01T08:08:37;0.80;74.20
39021;DHT22;25188;51.958;5.842;2023-03-01T08:11:05;0.80;74.20
39021;DHT22;25188;51.958;5.842;2023-03-01T08:13:31;0.90;74.30
39021;DHT22;25188;51.958;5.842;2023-03-01T08:16:05;1.00;74.30
39021;DHT22;25188;51.958;5.842;2023-03-01T08:18:31;1.00;74.30
39021;DHT22;25188;51.958;5.842;2023-03-01T08:21:05;1.10;74.20
39021;DHT22;25188;51.958;5.842;2023-03-01T08:23:30;1.20;74.10
39021;DHT22;25188;51.958;5.842;2023-03-01T08:26:10;1.40;74.30
39021;DHT22;25188;51.958;5.842;2023-03-01T08:28:36;1.30;74.00
39021;DHT22;25188;51.958;5.842;2023-03-01T08:31:02;1.40;73.90
39021;DHT22;25188;51.958;5.842;2023-03-01T08:33:28;1.50;73.90
39021;DHT22;25188;51.958;5.842;2023-03-01T08:36:05;1.60;73.80
39021;DHT22;25188;51.958;5.842;2023-03-01T08:38:32;1.80;73.80
39021;DHT22;25188;51.958;5.842;2023-03-01T08:41:02;1.70;73.50
39021;DHT22;25188;51.958;5.842;2023-03-01T08:43:28;1.80;73.40
39021;DHT22;25188;51.958;5.842;2023-03-01T08:45:54;1.90;73.30
39021;DHT22;25188;51.958;5.842;2023-03-01T08:48:19;2.00;73.30
39021;DHT22;25188;51.958;5.842;2023-03-01T08:50:45;2.10;73.20
39021;DHT22;25188;51.958;5.842;2023-03-01T08:53:10;2.20;73.10
39021;DHT22;25188;51.958;5.842;2023-03-01T08:55:36;2.30;73.00
39021;DHT22;25188;51.958;5.842;2023-03-01T08:58:02;2.30;72.80
39021;DHT22;25188;51.958;5.842;2023-03-01T09:00:27;2.50;72.90
39021;DHT22;25188;51.958;5.842;2023-03-01T09:02:53;2.50;72.60
39021;DHT22;25188;51.958;5.842;2023-03-01T09:05:19;2.60;72.60
39021;DHT22;25188;51.958;5.842;2023-03-01T09:07:44;2.70;72.40
39021;DHT22;25188;51.958;5.842;2023-03-01T09:10:10;2.80;72.20
39021;DHT22;25188;51.958;5.842;2023-03-01T09:12:36;2.80;72.10
39021;DHT22;25188;51.958;5.842;2023-03-01T09:15:02;2.80;72.00
39021;DHT22;25188;51.958;5.842;2023-03-01T09:17:28;3.00;71.80
39021;DHT22;25188;51.958;5.842;2023-03-01T09:19:53;3.10;71.40
39021;DHT22;25188;51.958;5.842;2023-03-01T09:22:19;3.30;71.30
39021;DHT22;25188;51.958;5.842;2023-03-01T09:24:45;3.30;71.10
39021;DHT22;25188;51.958;5.842;2023-03-01T09:27:10;3.30;70.70
39021;DHT22;25188;51.958;5.842;2023-03-01T09:29:38;3.40;71.20
39021;DHT22;25188;51.958;5.842;2023-03-01T09:32:04;3.50;70.70
39021;DHT22;25188;51.958;5.842;2023-03-01T09:34:29;3.60;70.30
39021;DHT22;25188;51.958;5.842;2023-03-01T09:36:57;3.70;70.00
39021;DHT22;25188;51.958;5.842;2023-03-01T09:39:23;3.70;69.80
39021;DHT22;25188;51.958;5.842;2023-03-01T09:41:57;3.80;69.60
39021;DHT22;25188;51.958;5.842;2023-03-01T09:44:40;3.90;69.50
39021;DHT22;25188;51.958;5.842;2023-03-01T09:47:18;4.00;69.20
39021;DHT22;25188;51.958;5.842;2023-03-01T09:49:53;4.10;69.30
39021;DHT22;25188;51.958;5.842;2023-03-01T09:55:17;4.30;68.90
39021;DHT22;25188;51.958;5.842;2023-03-01T09:57:47;4.40;68.60
39021;DHT22;25188;51.958;5.842;2023-03-01T10:06:00;4.90;67.40
39021;DHT22;25188;51.958;5.842;2023-03-01T10:08:29;5.20;66.70
39021;DHT22;25188;51.958;5.842;2023-03-01T10:10:58;5.60;66.60
39021;DHT22;25188;51.958;5.842;2023-03-01T10:16:17;6.70;67.10
39021;DHT22;25188;51.958;5.842;2023-03-01T10:18:49;7.40;67.30
39021;DHT22;25188;51.958;5.842;2023-03-01T10:21:19;8.20;67.30
39021;DHT22;25188;51.958;5.842;2023-03-01T10:23:46;9.00;66.50
39021;DHT22;25188;51.958;5.842;2023-03-01T10:31:27;11.50;64.40
39021;DHT22;25188;51.958;5.842;2023-03-01T10:34:07;12.40;62.90
39021;DHT22;25188;51.958;5.842;2023-03-01T10:36:34;13.20;63.00
39021;DHT22;25188;51.958;5.842;2023-03-01T10:39:27;14.00;60.30
39021;DHT22;25188;51.958;5.842;2023-03-01T10:42:19;14.70;58.70
39021;DHT22;25188;51.958;5.842;2023-03-01T10:44:47;15.50;57.30
39021;DHT22;25188;51.958;5.842;2023-03-01T10:50:02;16.90;53.70
39021;DHT22;25188;51.958;5.842;2023-03-01T10:52:37;17.30;50.60
39021;DHT22;25188;51.958;5.842;2023-03-01T10:55:26;17.70;49.80
39021;DHT22;25188;51.958;5.842;2023-03-01T10:58:19;18.20;48.00
39021;DHT22;25188;51.958;5.842;2023-03-01T11:00:51;18.60;47.20
39021;DHT22;25188;51.958;5.842;2023-03-01T11:03:40;19.10;46.80
39021;DHT22;25188;51.958;5.842;2023-03-01T11:06:20;19.40;44.50
39021;DHT22;25188;51.958;5.842;2023-03-01T11:08:50;19.80;43.40
39021;DHT22;25188;51.958;5.842;2023-03-01T11:11:33;20.10;43.40
39021;DHT22;25188;51.958;5.842;2023-03-01T11:14:06;20.50;41.60
39021;DHT22;25188;51.958;5.842;2023-03-01T11:16:39;20.80;41.50
39021;DHT22;25188;51.958;5.842;2023-03-01T11:21:37;21.50;40.00
39021;DHT22;25188;51.958;5.842;2023-03-01T11:24:08;21.60;38.90
39021;DHT22;25188;51.958;5.842;2023-03-01T11:26:39;21.70;38.20
39021;DHT22;25188;51.958;5.842;2023-03-01T11:29:14;22.00;37.60
39021;DHT22;25188;51.958;5.842;2023-03-01T11:31:42;22.30;36.50
39021;DHT22;25188;51.958;5.842;2023-03-01T11:34:15;22.50;36.50
39021;DHT22;25188;51.958;5.842;2023-03-01T11:36:50;22.70;35.40
39021;DHT22;25188;51.958;5.842;2023-03-01T11:39:37;22.70;34.80
39021;DHT22;25188;51.958;5.842;2023-03-01T11:42:13;22.80;34.00
39021;DHT22;25188;51.958;5.842;2023-03-01T11:44:41;22.90;33.90
39021;DHT22;25188;51.958;5.842;2023-03-01T11:58:27;23.70;32.30
39021;DHT22;25188;51.958;5.842;2023-03-01T12:07:00;23.90;31.30
39021;DHT22;25188;51.958;5.842;2023-03-01T12:14:50;24.30;31.10
39021;DHT22;25188;51.958;5.842;2023-03-01T12:18:01;24.60;30.70
39021;DHT22;25188;51.958;5.842;2023-03-01T12:20:38;24.70;30.00
39021;DHT22;25188;51.958;5.842;2023-03-01T12:41:27;24.80;29.00
39021;DHT22;25188;51.958;5.842;2023-03-01T12:49:22;25.30;29.20
39021;DHT22;25188;51.958;5.842;2023-03-01T12:51:59;25.40;29.10
39021;DHT22;25188;51.958;5.842;2023-03-01T12:54:40;25.60;29.00
39021;DHT22;25188;51.958;5.842;2023-03-01T12:57:15;26.00;28.80
39021;DHT22;25188;51.958;5.842;2023-03-01T12:59:51;26.10;28.50
39021;DHT22;25188;51.958;5.842;2023-03-01T13:02:57;26.30;28.30
39021;DHT22;25188;51.958;5.842;2023-03-01T13:11:01;26.40;28.00
39021;DHT22;25188;51.958;5.842;2023-03-01T13:13:28;26.40;28.00
39021;DHT22;25188;51.958;5.842;2023-03-01T13:15:56;26.40;27.90
39021;DHT22;25188;51.958;5.842;2023-03-01T13:18:27;26.30;27.60
39021;DHT22;25188;51.958;5.842;2023-03-01T13:20:55;26.30;27.40
39021;DHT22;25188;51.958;5.842;2023-03-01T13:26:13;26.20;27.30
39021;DHT22;25188;51.958;5.842;2023-03-01T13:29:00;26.30;27.10
39021;DHT22;25188;51.958;5.842;2023-03-01T13:33:56;26.10;27.40
39021;DHT22;25188;51.958;5.842;2023-03-01T13:41:59;26.20;27.40
39021;DHT22;25188;51.958;5.842;2023-03-01T13:44:38;26.20;27.00
39021;DHT22;25188;51.958;5.842;2023-03-01T13:57:57;26.40;27.20
39021;DHT22;25188;51.958;5.842;2023-03-01T14:00:36;26.40;27.20
39021;DHT22;25188;51.958;5.842;2023-03-01T14:03:17;26.40;27.00
39021;DHT22;25188;51.958;5.842;2023-03-01T14:06:13;26.50;26.50
39021;DHT22;25188;51.958;5.842;2023-03-01T14:08:46;26.50;26.40
39021;DHT22;25188;51.958;5.842;2023-03-01T14:19:24;26.30;26.50
39021;DHT22;25188;51.958;5.842;2023-03-01T14:24:43;26.40;26.50
39021;DHT22;25188;51.958;5.842;2023-03-01T14:27:13;26.40;26.50
39021;DHT22;25188;51.958;5.842;2023-03-01T14:29:40;26.50;26.30
39021;DHT22;25188;51.958;5.842;2023-03-01T14:32:32;26.50;26.40
39021;DHT22;25188;51.958;5.842;2023-03-01T14:34:59;26.30;26.40
39021;DHT22;25188;51.958;5.842;2023-03-01T14:37:34;26.30;26.50
39021;DHT22;25188;51.958;5.842;2023-03-01T14:40:03;26.10;26.40
39021;DHT22;25188;51.958;5.842;2023-03-01T14:42:35;25.90;26.20
39021;DHT22;25188;51.958;5.842;2023-03-01T14:45:14;25.60;26.90
39021;DHT22;25188;51.958;5.842;2023-03-01T14:47:44;25.50;26.50
39021;DHT22;25188;51.958;5.842;2023-03-01T14:50:26;25.20;26.60
39021;DHT22;25188;51.958;5.842;2023-03-01T14:52:56;25.10;26.70
39021;DHT22;25188;51.958;5.842;2023-03-01T14:55:42;25.00;26.80
39021;DHT22;25188;51.958;5.842;2023-03-01T14:58:14;25.10;26.90
39021;DHT22;25188;51.958;5.842;2023-03-01T15:00:49;25.20;26.80
39021;DHT22;25188;51.958;5.842;2023-03-01T15:03:33;25.30;26.90
39021;DHT22;25188;51.958;5.842;2023-03-01T15:06:02;25.30;26.80
39021;DHT22;25188;51.958;5.842;2023-03-01T15:08:28;25.30;26.80
39021;DHT22;25188;51.958;5.842;2023-03-01T15:13:40;25.10;26.70
39021;DHT22;25188;51.958;5.842;2023-03-01T15:18:35;25.00;26.40
39021;DHT22;25188;51.958;5.842;2023-03-01T15:21:15;25.00;26.60
39021;DHT22;25188;51.958;5.842;2023-03-01T15:23:41;25.00;26.60
39021;DHT22;25188;51.958;5.842;2023-03-01T15:26:31;25.00;26.70
39021;DHT22;25188;51.958;5.842;2023-03-01T15:28:58;25.00;26.50
39021;DHT22;25188;51.958;5.842;2023-03-01T15:31:28;24.90;26.50
39021;DHT22;25188;51.958;5.842;2023-03-01T15:34:21;24.90;26.50
39021;DHT22;25188;51.958;5.842;2023-03-01T15:36:47;24.70;26.50
39021;DHT22;25188;51.958;5.842;2023-03-01T15:39:34;24.50;26.70
39021;DHT22;25188;51.958;5.842;2023-03-01T15:47:41;24.20;26.90
39021;DHT22;25188;51.958;5.842;2023-03-01T15:50:29;24.10;27.00
39021;DHT22;25188;51.958;5.842;2023-03-01T15:52:58;24.00;27.10
39021;DHT22;25188;51.958;5.842;2023-03-01T15:55:30;23.90;27.20
39021;DHT22;25188;51.958;5.842;2023-03-01T15:58:11;23.80;27.30
39021;DHT22;25188;51.958;5.842;2023-03-01T16:00:37;23.70;27.30
39021;DHT22;25188;51.958;5.842;2023-03-01T16:03:04;23.60;27.20
39021;DHT22;25188;51.958;5.842;2023-03-01T16:05:34;23.30;27.40
39021;DHT22;25188;51.958;5.842;2023-03-01T16:08:01;22.90;27.50
39021;DHT22;25188;51.958;5.842;2023-03-01T16:10:28;22.50;27.80
39021;DHT22;25188;51.958;5.842;2023-03-01T16:12:53;22.20;28.00
39021;DHT22;25188;51.958;5.842;2023-03-01T16:15:20;21.90;28.10
39021;DHT22;25188;51.958;5.842;2023-03-01T16:17:47;21.50;28.10
39021;DHT22;25188;51.958;5.842;2023-03-01T16:20:13;20.80;28.50
39021;DHT22;25188;51.958;5.842;2023-03-01T16:22:42;20.00;28.90
39021;DHT22;25188;51.958;5.842;2023-03-01T16:25:09;19.30;29.30
39021;DHT22;25188;51.958;5.842;2023-03-01T16:27:35;18.70;29.60
39021;DHT22;25188;51.958;5.842;2023-03-01T16:30:01;18.10;30.00
39021;DHT22;25188;51.958;5.842;2023-03-01T16:32:26;17.50;30.30
39021;DHT22;25188;51.958;5.842;2023-03-01T16:34:52;16.90;30.60
39021;DHT22;25188;51.958;5.842;2023-03-01T16:37:17;16.40;31.20
39021;DHT22;25188;51.958;5.842;2023-03-01T16:39:44;15.90;31.40
39021;DHT22;25188;51.958;5.842;2023-03-01T16:42:10;15.60;32.30
39021;DHT22;25188;51.958;5.842;2023-03-01T16:44:35;15.20;32.50
39021;DHT22;25188;51.958;5.842;2023-03-01T16:47:01;15.00;33.00
39021;DHT22;25188;51.958;5.842;2023-03-01T16:49:26;14.80;33.10
39021;DHT22;25188;51.958;5.842;2023-03-01T16:51:53;14.60;33.50
39021;DHT22;25188;51.958;5.842;2023-03-01T16:54:19;14.50;33.90
39021;DHT22;25188;51.958;5.842;2023-03-01T16:56:45;14.50;33.90
39021;DHT22;25188;51.958;5.842;2023-03-01T16:59:10;14.40;33.90
39021;DHT22;25188;51.958;5.842;2023-03-01T17:01:36;14.20;33.80
39021;DHT22;25188;51.958;5.842;2023-03-01T17:04:08;14.00;34.10
39021;DHT22;25188;51.958;5.842;2023-03-01T17:06:35;13.70;34.30
39021;DHT22;25188;51.958;5.842;2023-03-01T17:09:01;13.40;34.40
39021;DHT22;25188;51.958;5.842;2023-03-01T17:11:27;13.10;34.80
39021;DHT22;25188;51.958;5.842;2023-03-01T17:13:53;12.70;36.30
39021;DHT22;25188;51.958;5.842;2023-03-01T17:16:20;12.50;36.50
39021;DHT22;25188;51.958;5.842;2023-03-01T17:18:46;12.20;36.20
39021;DHT22;25188;51.958;5.842;2023-03-01T17:21:13;11.90;36.80
39021;DHT22;25188;51.958;5.842;2023-03-01T17:23:41;11.70;37.10
39021;DHT22;25188;51.958;5.842;2023-03-01T17:26:07;11.50;37.50
39021;DHT22;25188;51.958;5.842;2023-03-01T17:28:35;11.30;38.10
39021;DHT22;25188;51.958;5.842;2023-03-01T17:31:03;11.10;38.10
39021;DHT22;25188;51.958;5.842;2023-03-01T17:33:29;10.90;38.90
39021;DHT22;25188;51.958;5.842;2023-03-01T17:35:56;10.70;39.40
39021;DHT22;25188;51.958;5.842;2023-03-01T17:38:22;10.60;40.00
39021;DHT22;25188;51.958;5.842;2023-03-01T17:40:47;10.40;40.50
39021;DHT22;25188;51.958;5.842;2023-03-01T17:43:14;10.20;40.60
39021;DHT22;25188;51.958;5.842;2023-03-01T17:45:40;10.10;40.80
39021;DHT22;25188;51.958;5.842;2023-03-01T17:48:08;10.00;41.10
39021;DHT22;25188;51.958;5.842;2023-03-01T17:50:36;9.80;41.00
39021;DHT22;25188;51.958;5.842;2023-03-01T17:53:03;9.70;41.30
39021;DHT22;25188;51.958;5.842;2023-03-01T17:55:33;9.60;41.90
39021;DHT22;25188;51.958;5.842;2023-03-01T17:57:59;9.60;42.60
39021;DHT22;25188;51.958;5.842;2023-03-01T18:00:24;9.40;42.90